sensor_id;sensor_type;location;lat;lon;timestamp;P1;durP1;ratioP1;P2;durP2;ratioP2
18820;SDS011;9539;59.332;18.034;2023-10-13T00:00:13;3.42;;;1.08;;
18820;SDS011;9539;59.332;18.034;2023-10-13T00:02:49;4.10;;;1.25;;
18820;SDS011;9539;59.332;18.034;2023-10-13T00:05:12;2.70;;;1.27;;
18820;SDS011;9539;59.332;18.034;2023-10-13T00:07:36;1.60;;;1.00;;
18820;SDS011;9539;59.332;18.034;2023-10-13T00:09:58;1.50;;;0.90;;
18820;SDS011;9539;59.332;18.034;2023-10-13T00:12:20;2.72;;;1.10;;
18820;SDS011;9539;59.332;18.034;2023-10-13T00:14:43;1.38;;;1.00;;
18820;SDS011;9539;59.332;18.034;2023-10-13T00:17:07;1.23;;;1.13;;
18820;SDS011;9539;59.332;18.034;2023-10-13T00:19:36;2.17;;;1.10;;
18820;SDS011;9539;59.332;18.034;2023-10-13T00:22:06;2.13;;;1.20;;
18820;SDS011;9539;59.332;18.034;2023-10-13T00:24:32;1.73;;;0.90;;
18820;SDS011;9539;59.332;18.034;2023-10-13T00:27:01;3.80;;;1.08;;
18820;SDS011;9539;59.332;18.034;2023-10-13T00:29:24;1.48;;;1.00;;
18820;SDS011;9539;59.332;18.034;2023-10-13T00:31:57;2.60;;;1.23;;
18820;SDS011;9539;59.332;18.034;2023-10-13T00:34:21;1.45;;;1.10;;
18820;SDS011;9539;59.332;18.034;2023-10-13T00:36:47;2.90;;;0.90;;
18820;SDS011;9539;59.332;18.034;2023-10-13T00:39:29;2.10;;;1.15;;
18820;SDS011;9539;59.332;18.034;2023-10-13T00:41:56;1.98;;;0.93;;
18820;SDS011;9539;59.332;18.034;2023-10-13T00:44:19;2.15;;;1.08;;
18820;SDS011;9539;59.332;18.034;2023-10-13T00:46:48;2.80;;;1.00;;
18820;SDS011;9539;59.332;18.034;2023-10-13T00:49:14;1.23;;;1.00;;
18820;SDS011;9539;59.332;18.034;2023-10-13T00:51:37;1.70;;;1.00;;
18820;SDS011;9539;59.332;18.034;2023-10-13T00:54:02;2.63;;;1.08;;
18820;SDS011;9539;59.332;18.034;2023-10-13T00:56:27;3.38;;;1.20;;
18820;SDS011;9539;59.332;18.034;2023-10-13T00:58:51;3.05;;;1.30;;
18820;SDS011;9539;59.332;18.034;2023-10-13T01:01:12;3.80;;;1.17;;
18820;SDS011;9539;59.332;18.034;2023-10-13T01:03:42;1.92;;;1.20;;
18820;SDS011;9539;59.332;18.034;2023-10-13T01:06:04;3.65;;;1.10;;
18820;SDS011;9539;59.332;18.034;2023-10-13T01:08:33;2.30;;;1.15;;
18820;SDS011;9539;59.332;18.034;2023-10-13T01:10:58;2.55;;;1.17;;
18820;SDS011;9539;59.332;18.034;2023-10-13T01:13:19;3.03;;;1.10;;
18820;SDS011;9539;59.332;18.034;2023-10-13T01:15:42;3.60;;;1.02;;
18820;SDS011;9539;59.332;18.034;2023-10-13T01:18:07;1.33;;;0.90;;
18820;SDS011;9539;59.332;18.034;2023-10-13T01:20:32;2.05;;;1.17;;
18820;SDS011;9539;59.332;18.034;2023-10-13T01:23:07;2.40;;;1.10;;
18820;SDS011;9539;59.332;18.034;2023-10-13T01:25:38;3.58;;;1.30;;
18820;SDS011;9539;59.332;18.034;2023-10-13T01:28:00;2.28;;;1.20;;
18820;SDS011;9539;59.332;18.034;2023-10-13T01:30:23;2.45;;;1.23;;
18820;SDS011;9539;59.332;18.034;2023-10-13T01:32:44;2.45;;;1.17;;
18820;SDS011;9539;59.332;18.034;2023-10-13T01:35:07;3.30;;;1.17;;
18820;SDS011;9539;59.332;18.034;2023-10-13T01:37:28;3.58;;;1.33;;
18820;SDS011;9539;59.332;18.034;2023-10-13T01:39:51;2.22;;;1.10;;
18820;SDS011;9539;59.332;18.034;2023-10-13T01:42:13;2.50;;;1.20;;
18820;SDS011;9539;59.332;18.034;2023-10-13T01:44:39;2.85;;;1.13;;
18820;SDS011;9539;59.332;18.034;2023-10-13T01:47:01;4.53;;;1.17;;
18820;SDS011;9539;59.332;18.034;2023-10-13T01:49:26;1.83;;;1.20;;
18820;SDS011;9539;59.332;18.034;2023-10-13T01:51:48;3.03;;;1.23;;
18820;SDS011;9539;59.332;18.034;2023-10-13T01:54:09;2.05;;;0.98;;
18820;SDS011;9539;59.332;18.034;2023-10-13T01:56:33;3.33;;;1.42;;
18820;SDS011;9539;59.332;18.034;2023-10-13T01:59:02;1.98;;;1.00;;
18820;SDS011;9539;59.332;18.034;2023-10-13T02:01:32;2.75;;;1.38;;
18820;SDS011;9539;59.332;18.034;2023-10-13T02:03:55;2.80;;;1.10;;
18820;SDS011;9539;59.332;18.034;2023-10-13T02:06:26;4.85;;;1.25;;
18820;SDS011;9539;59.332;18.034;2023-10-13T02:08:52;2.08;;;1.23;;
18820;SDS011;9539;59.332;18.034;2023-10-13T02:11:17;2.30;;;1.17;;
18820;SDS011;9539;59.332;18.034;2023-10-13T02:13:42;1.38;;;1.15;;
18820;SDS011;9539;59.332;18.034;2023-10-13T02:16:08;3.08;;;1.30;;
18820;SDS011;9539;59.332;18.034;2023-10-13T02:18:32;2.45;;;1.40;;
18820;SDS011;9539;59.332;18.034;2023-10-13T02:21:02;3.83;;;1.48;;
18820;SDS011;9539;59.332;18.034;2023-10-13T02:23:25;4.25;;;1.20;;
18820;SDS011;9539;59.332;18.034;2023-10-13T02:25:49;3.40;;;1.20;;
18820;SDS011;9539;59.332;18.034;2023-10-13T02:28:19;3.55;;;1.30;;
18820;SDS011;9539;59.332;18.034;2023-10-13T02:30:49;3.15;;;1.30;;
18820;SDS011;9539;59.332;18.034;2023-10-13T02:33:11;2.08;;;1.20;;
18820;SDS011;9539;59.332;18.034;2023-10-13T02:35:33;2.60;;;1.10;;
18820;SDS011;9539;59.332;18.034;2023-10-13T02:37:55;2.53;;;1.35;;
18820;SDS011;9539;59.332;18.034;2023-10-13T02:40:19;2.33;;;1.33;;
18820;SDS011;9539;59.332;18.034;2023-10-13T02:42:46;2.13;;;1.20;;
18820;SDS011;9539;59.332;18.034;2023-10-13T02:45:08;4.47;;;1.50;;
18820;SDS011;9539;59.332;18.034;2023-10-13T02:47:34;4.60;;;1.58;;
18820;SDS011;9539;59.332;18.034;2023-10-13T02:49:57;2.35;;;1.45;;
18820;SDS011;9539;59.332;18.034;2023-10-13T02:52:20;3.33;;;1.20;;
18820;SDS011;9539;59.332;18.034;2023-10-13T02:54:44;3.95;;;1.58;;
18820;SDS011;9539;59.332;18.034;2023-10-13T02:57:07;3.13;;;1.30;;
18820;SDS011;9539;59.332;18.034;2023-10-13T02:59:29;4.13;;;1.30;;
18820;SDS011;9539;59.332;18.034;2023-10-13T03:01:54;3.20;;;1.25;;
18820;SDS011;9539;59.332;18.034;2023-10-13T03:04:18;3.30;;;1.23;;
18820;SDS011;9539;59.332;18.034;2023-10-13T03:06:45;3.58;;;1.45;;
18820;SDS011;9539;59.332;18.034;2023-10-13T03:09:08;4.60;;;1.70;;
18820;SDS011;9539;59.332;18.034;2023-10-13T03:11:38;1.33;;;1.20;;
18820;SDS011;9539;59.332;18.034;2023-10-13T03:14:02;3.03;;;1.40;;
18820;SDS011;9539;59.332;18.034;2023-10-13T03:16:26;3.78;;;1.27;;
18820;SDS011;9539;59.332;18.034;2023-10-13T03:18:50;3.83;;;1.45;;
18820;SDS011;9539;59.332;18.034;2023-10-13T03:21:17;2.03;;;1.30;;
18820;SDS011;9539;59.332;18.034;2023-10-13T03:23:48;3.10;;;1.40;;
18820;SDS011;9539;59.332;18.034;2023-10-13T03:26:14;3.15;;;1.30;;
18820;SDS011;9539;59.332;18.034;2023-10-13T03:28:37;4.22;;;1.52;;
18820;SDS011;9539;59.332;18.034;2023-10-13T03:31:00;3.53;;;1.50;;
18820;SDS011;9539;59.332;18.034;2023-10-13T03:33:22;4.10;;;1.30;;
18820;SDS011;9539;59.332;18.034;2023-10-13T03:35:47;5.22;;;1.70;;
18820;SDS011;9539;59.332;18.034;2023-10-13T03:38:15;4.75;;;1.38;;
18820;SDS011;9539;59.332;18.034;2023-10-13T03:40:38;2.63;;;1.40;;
18820;SDS011;9539;59.332;18.034;2023-10-13T03:43:01;5.90;;;1.38;;
18820;SDS011;9539;59.332;18.034;2023-10-13T03:45:26;3.83;;;1.60;;
18820;SDS011;9539;59.332;18.034;2023-10-13T03:47:52;2.80;;;1.30;;
18820;SDS011;9539;59.332;18.034;2023-10-13T03:50:14;4.25;;;1.60;;
18820;SDS011;9539;59.332;18.034;2023-10-13T03:52:36;6.45;;;1.88;;
18820;SDS011;9539;59.332;18.034;2023-10-13T03:54:59;3.85;;;1.40;;
18820;SDS011;9539;59.332;18.034;2023-10-13T03:57:25;3.33;;;1.58;;
18820;SDS011;9539;59.332;18.034;2023-10-13T03:59:47;5.25;;;1.50;;
18820;SDS011;9539;59.332;18.034;2023-10-13T04:02:09;6.07;;;1.67;;
18820;SDS011;9539;59.332;18.034;2023-10-13T04:04:38;5.18;;;1.70;;
18820;SDS011;9539;59.332;18.034;2023-10-13T04:07:08;4.13;;;1.42;;
18820;SDS011;9539;59.332;18.034;2023-10-13T04:09:50;2.33;;;1.30;;
18820;SDS011;9539;59.332;18.034;2023-10-13T04:12:53;3.63;;;1.58;;
18820;SDS011;9539;59.332;18.034;2023-10-13T04:15:32;3.13;;;1.33;;
18820;SDS011;9539;59.332;18.034;2023-10-13T04:18:03;5.03;;;1.65;;
18820;SDS011;9539;59.332;18.034;2023-10-13T04:20:34;4.15;;;1.42;;
18820;SDS011;9539;59.332;18.034;2023-10-13T04:22:58;5.85;;;1.70;;
18820;SDS011;9539;59.332;18.034;2023-10-13T04:25:46;6.18;;;1.50;;
18820;SDS011;9539;59.332;18.034;2023-10-13T04:28:40;5.50;;;1.60;;
18820;SDS011;9539;59.332;18.034;2023-10-13T04:31:15;9.88;;;2.30;;
18820;SDS011;9539;59.332;18.034;2023-10-13T04:33:45;6.40;;;1.85;;
18820;SDS011;9539;59.332;18.034;2023-10-13T04:36:13;5.05;;;1.67;;
18820;SDS011;9539;59.332;18.034;2023-10-13T04:38:36;4.40;;;1.40;;
18820;SDS011;9539;59.332;18.034;2023-10-13T04:41:15;6.78;;;2.10;;
18820;SDS011;9539;59.332;18.034;2023-10-13T04:43:44;3.80;;;1.60;;
18820;SDS011;9539;59.332;18.034;2023-10-13T04:46:16;4.53;;;1.83;;
18820;SDS011;9539;59.332;18.034;2023-10-13T04:48:55;5.15;;;1.90;;
18820;SDS011;9539;59.332;18.034;2023-10-13T04:51:21;4.80;;;1.80;;
18820;SDS011;9539;59.332;18.034;2023-10-13T04:54:09;4.38;;;1.50;;
18820;SDS011;9539;59.332;18.034;2023-10-13T04:56:45;6.95;;;1.90;;
18820;SDS011;9539;59.332;18.034;2023-10-13T04:59:34;7.85;;;2.00;;
18820;SDS011;9539;59.332;18.034;2023-10-13T05:02:19;4.07;;;1.92;;
18820;SDS011;9539;59.332;18.034;2023-10-13T05:05:02;5.93;;;1.98;;
18820;SDS011;9539;59.332;18.034;2023-10-13T05:07:42;6.88;;;1.75;;
18820;SDS011;9539;59.332;18.034;2023-10-13T05:10:22;5.18;;;1.85;;
18820;SDS011;9539;59.332;18.034;2023-10-13T05:13:02;4.13;;;1.30;;
18820;SDS011;9539;59.332;18.034;2023-10-13T05:15:46;4.85;;;1.58;;
18820;SDS011;9539;59.332;18.034;2023-10-13T05:18:26;4.40;;;1.70;;
18820;SDS011;9539;59.332;18.034;2023-10-13T05:21:05;8.68;;;1.67;;
18820;SDS011;9539;59.332;18.034;2023-10-13T05:23:44;8.23;;;1.77;;
18820;SDS011;9539;59.332;18.034;2023-10-13T05:26:24;5.18;;;1.50;;
18820;SDS011;9539;59.332;18.034;2023-10-13T05:29:06;6.80;;;2.33;;
18820;SDS011;9539;59.332;18.034;2023-10-13T05:31:55;5.07;;;1.80;;
18820;SDS011;9539;59.332;18.034;2023-10-13T05:34:34;3.60;;;1.60;;
18820;SDS011;9539;59.332;18.034;2023-10-13T05:37:13;8.20;;;2.25;;
18820;SDS011;9539;59.332;18.034;2023-10-13T05:39:52;8.70;;;2.00;;
18820;SDS011;9539;59.332;18.034;2023-10-13T05:42:31;4.10;;;1.70;;
18820;SDS011;9539;59.332;18.034;2023-10-13T05:45:10;4.30;;;1.60;;
18820;SDS011;9539;59.332;18.034;2023-10-13T05:47:58;6.80;;;1.80;;
18820;SDS011;9539;59.332;18.034;2023-10-13T05:50:31;6.53;;;1.90;;
18820;SDS011;9539;59.332;18.034;2023-10-13T05:53:31;7.32;;;2.05;;
18820;SDS011;9539;59.332;18.034;2023-10-13T05:56:10;7.47;;;2.00;;
18820;SDS011;9539;59.332;18.034;2023-10-13T05:58:50;9.05;;;2.17;;
18820;SDS011;9539;59.332;18.034;2023-10-13T06:01:28;7.30;;;2.08;;
18820;SDS011;9539;59.332;18.034;2023-10-13T06:04:09;7.25;;;2.25;;
18820;SDS011;9539;59.332;18.034;2023-10-13T06:06:48;5.63;;;1.80;;
18820;SDS011;9539;59.332;18.034;2023-10-13T06:09:27;6.28;;;1.92;;
18820;SDS011;9539;59.332;18.034;2023-10-13T06:12:06;5.28;;;1.75;;
18820;SDS011;9539;59.332;18.034;2023-10-13T06:14:45;9.05;;;1.80;;
18820;SDS011;9539;59.332;18.034;2023-10-13T06:17:25;6.50;;;1.55;;
18820;SDS011;9539;59.332;18.034;2023-10-13T06:20:08;8.07;;;1.88;;
18820;SDS011;9539;59.332;18.034;2023-10-13T06:22:48;5.72;;;1.85;;
18820;SDS011;9539;59.332;18.034;2023-10-13T06:25:28;4.88;;;2.05;;
18820;SDS011;9539;59.332;18.034;2023-10-13T06:28:07;5.03;;;2.00;;
18820;SDS011;9539;59.332;18.034;2023-10-13T06:30:53;6.15;;;1.67;;
18820;SDS011;9539;59.332;18.034;2023-10-13T06:33:17;8.77;;;2.50;;
18820;SDS011;9539;59.332;18.034;2023-10-13T06:35:49;7.85;;;2.13;;
18820;SDS011;9539;59.332;18.034;2023-10-13T06:38:11;6.35;;;1.92;;
18820;SDS011;9539;59.332;18.034;2023-10-13T06:40:44;10.30;;;2.13;;
18820;SDS011;9539;59.332;18.034;2023-10-13T06:43:08;6.38;;;2.40;;
18820;SDS011;9539;59.332;18.034;2023-10-13T06:45:36;5.13;;;2.05;;
18820;SDS011;9539;59.332;18.034;2023-10-13T06:47:58;8.77;;;2.35;;
18820;SDS011;9539;59.332;18.034;2023-10-13T06:50:20;6.97;;;1.95;;
18820;SDS011;9539;59.332;18.034;2023-10-13T06:52:46;5.63;;;1.75;;
18820;SDS011;9539;59.332;18.034;2023-10-13T06:55:08;9.20;;;2.22;;
18820;SDS011;9539;59.332;18.034;2023-10-13T06:57:37;5.53;;;1.70;;
18820;SDS011;9539;59.332;18.034;2023-10-13T07:00:03;6.78;;;1.90;;
18820;SDS011;9539;59.332;18.034;2023-10-13T07:02:28;7.25;;;2.25;;
18820;SDS011;9539;59.332;18.034;2023-10-13T07:04:53;6.57;;;2.15;;
18820;SDS011;9539;59.332;18.034;2023-10-13T07:07:27;6.35;;;1.90;;
18820;SDS011;9539;59.332;18.034;2023-10-13T07:09:51;5.72;;;2.30;;
18820;SDS011;9539;59.332;18.034;2023-10-13T07:12:18;9.75;;;2.00;;
18820;SDS011;9539;59.332;18.034;2023-10-13T07:14:46;5.40;;;2.20;;
18820;SDS011;9539;59.332;18.034;2023-10-13T07:17:20;5.60;;;2.28;;
18820;SDS011;9539;59.332;18.034;2023-10-13T07:19:45;7.82;;;1.90;;
18820;SDS011;9539;59.332;18.034;2023-10-13T07:22:13;6.70;;;2.15;;
18820;SDS011;9539;59.332;18.034;2023-10-13T07:24:40;6.30;;;1.90;;
18820;SDS011;9539;59.332;18.034;2023-10-13T07:27:04;8.52;;;2.60;;
18820;SDS011;9539;59.332;18.034;2023-10-13T07:29:26;7.63;;;1.90;;
18820;SDS011;9539;59.332;18.034;2023-10-13T07:31:48;5.65;;;2.13;;
18820;SDS011;9539;59.332;18.034;2023-10-13T07:34:10;6.30;;;2.55;;
18820;SDS011;9539;59.332;18.034;2023-10-13T07:36:44;6.60;;;2.28;;
18820;SDS011;9539;59.332;18.034;2023-10-13T07:39:06;6.43;;;2.08;;
18820;SDS011;9539;59.332;18.034;2023-10-13T07:41:40;9.88;;;1.90;;
18820;SDS011;9539;59.332;18.034;2023-10-13T07:44:04;8.48;;;2.40;;
18820;SDS011;9539;59.332;18.034;2023-10-13T07:46:26;6.78;;;1.92;;
18820;SDS011;9539;59.332;18.034;2023-10-13T07:48:51;8.43;;;1.88;;
18820;SDS011;9539;59.332;18.034;2023-10-13T07:51:14;6.63;;;2.08;;
18820;SDS011;9539;59.332;18.034;2023-10-13T07:53:37;9.27;;;1.98;;
18820;SDS011;9539;59.332;18.034;2023-10-13T07:56:00;14.57;;;2.05;;
18820;SDS011;9539;59.332;18.034;2023-10-13T07:58:25;8.63;;;2.20;;
18820;SDS011;9539;59.332;18.034;2023-10-13T08:00:48;8.85;;;2.00;;
18820;SDS011;9539;59.332;18.034;2023-10-13T08:03:14;7.80;;;2.08;;
18820;SDS011;9539;59.332;18.034;2023-10-13T08:05:52;8.48;;;2.30;;
18820;SDS011;9539;59.332;18.034;2023-10-13T08:08:18;6.13;;;1.73;;
18820;SDS011;9539;59.332;18.034;2023-10-13T08:10:41;6.20;;;2.00;;
18820;SDS011;9539;59.332;18.034;2023-10-13T08:13:05;8.82;;;2.20;;
18820;SDS011;9539;59.332;18.034;2023-10-13T08:15:32;7.43;;;2.33;;
18820;SDS011;9539;59.332;18.034;2023-10-13T08:17:55;9.65;;;2.45;;
18820;SDS011;9539;59.332;18.034;2023-10-13T08:20:19;10.88;;;2.47;;
18820;SDS011;9539;59.332;18.034;2023-10-13T08:22:42;9.63;;;2.83;;
18820;SDS011;9539;59.332;18.034;2023-10-13T08:25:07;8.95;;;2.65;;
18820;SDS011;9539;59.332;18.034;2023-10-13T08:27:46;9.32;;;2.20;;
18820;SDS011;9539;59.332;18.034;2023-10-13T08:30:25;8.20;;;2.40;;
18820;SDS011;9539;59.332;18.034;2023-10-13T08:32:49;8.88;;;2.10;;
18820;SDS011;9539;59.332;18.034;2023-10-13T08:35:18;8.35;;;2.10;;
18820;SDS011;9539;59.332;18.034;2023-10-13T08:37:54;10.05;;;1.95;;
18820;SDS011;9539;59.332;18.034;2023-10-13T08:40:27;9.32;;;2.38;;
18820;SDS011;9539;59.332;18.034;2023-10-13T08:43:24;11.88;;;2.78;;
18820;SDS011;9539;59.332;18.034;2023-10-13T08:46:02;6.30;;;2.20;;
18820;SDS011;9539;59.332;18.034;2023-10-13T08:48:26;8.18;;;1.88;;
18820;SDS011;9539;59.332;18.034;2023-10-13T08:50:56;10.80;;;2.10;;
18820;SDS011;9539;59.332;18.034;2023-10-13T08:53:24;10.85;;;2.28;;
18820;SDS011;9539;59.332;18.034;2023-10-13T08:55:51;10.95;;;2.05;;
18820;SDS011;9539;59.332;18.034;2023-10-13T08:58:25;9.77;;;2.25;;
18820;SDS011;9539;59.332;18.034;2023-10-13T09:01:07;8.23;;;2.65;;
18820;SDS011;9539;59.332;18.034;2023-10-13T09:03:32;12.45;;;2.50;;
18820;SDS011;9539;59.332;18.034;2023-10-13T09:06:01;9.40;;;2.33;;
18820;SDS011;9539;59.332;18.034;2023-10-13T09:08:24;11.60;;;2.55;;
18820;SDS011;9539;59.332;18.034;2023-10-13T09:10:57;10.38;;;2.28;;
18820;SDS011;9539;59.332;18.034;2023-10-13T09:13:33;7.93;;;2.25;;
18820;SDS011;9539;59.332;18.034;2023-10-13T09:16:08;6.78;;;2.20;;
18820;SDS011;9539;59.332;18.034;2023-10-13T09:18:36;7.57;;;2.15;;
18820;SDS011;9539;59.332;18.034;2023-10-13T09:21:07;12.27;;;2.30;;
18820;SDS011;9539;59.332;18.034;2023-10-13T09:23:50;7.55;;;2.20;;
18820;SDS011;9539;59.332;18.034;2023-10-13T09:26:21;8.05;;;2.10;;
18820;SDS011;9539;59.332;18.034;2023-10-13T09:28:44;12.32;;;2.33;;
18820;SDS011;9539;59.332;18.034;2023-10-13T09:31:11;10.32;;;3.15;;
18820;SDS011;9539;59.332;18.034;2023-10-13T09:33:34;11.35;;;2.50;;
18820;SDS011;9539;59.332;18.034;2023-10-13T09:35:56;10.52;;;2.90;;
18820;SDS011;9539;59.332;18.034;2023-10-13T09:38:20;9.25;;;2.72;;
18820;SDS011;9539;59.332;18.034;2023-10-13T09:40:41;8.95;;;2.83;;
18820;SDS011;9539;59.332;18.034;2023-10-13T09:43:10;13.32;;;2.55;;
18820;SDS011;9539;59.332;18.034;2023-10-13T09:45:35;10.45;;;2.75;;
18820;SDS011;9539;59.332;18.034;2023-10-13T09:48:00;10.10;;;2.45;;
18820;SDS011;9539;59.332;18.034;2023-10-13T09:50:26;10.55;;;2.85;;
18820;SDS011;9539;59.332;18.034;2023-10-13T09:52:54;14.10;;;2.47;;
18820;SDS011;9539;59.332;18.034;2023-10-13T09:55:19;9.95;;;2.60;;
18820;SDS011;9539;59.332;18.034;2023-10-13T09:57:51;8.30;;;2.70;;
18820;SDS011;9539;59.332;18.034;2023-10-13T10:00:19;11.48;;;2.70;;
18820;SDS011;9539;59.332;18.034;2023-10-13T10:03:00;8.60;;;2.20;;
18820;SDS011;9539;59.332;18.034;2023-10-13T10:05:35;10.27;;;3.20;;
18820;SDS011;9539;59.332;18.034;2023-10-13T10:07:56;9.88;;;2.55;;
18820;SDS011;9539;59.332;18.034;2023-10-13T10:10:22;10.48;;;2.80;;
18820;SDS011;9539;59.332;18.034;2023-10-13T10:12:48;7.25;;;2.65;;
18820;SDS011;9539;59.332;18.034;2023-10-13T10:15:20;12.80;;;2.80;;
18820;SDS011;9539;59.332;18.034;2023-10-13T10:17:50;14.95;;;2.65;;
18820;SDS011;9539;59.332;18.034;2023-10-13T10:20:14;8.85;;;2.85;;
18820;SDS011;9539;59.332;18.034;2023-10-13T10:22:55;10.57;;;3.30;;
18820;SDS011;9539;59.332;18.034;2023-10-13T10:25:28;13.88;;;2.90;;
18820;SDS011;9539;59.332;18.034;2023-10-13T10:27:55;11.43;;;2.65;;
18820;SDS011;9539;59.332;18.034;2023-10-13T10:30:23;11.50;;;2.90;;
18820;SDS011;9539;59.332;18.034;2023-10-13T10:32:46;11.10;;;2.92;;
18820;SDS011;9539;59.332;18.034;2023-10-13T10:35:22;11.77;;;2.58;;
18820;SDS011;9539;59.332;18.034;2023-10-13T10:37:46;13.73;;;3.20;;
18820;SDS011;9539;59.332;18.034;2023-10-13T10:40:09;8.93;;;2.92;;
18820;SDS011;9539;59.332;18.034;2023-10-13T10:42:48;10.27;;;2.85;;
18820;SDS011;9539;59.332;18.034;2023-10-13T10:45:10;14.30;;;3.00;;
18820;SDS011;9539;59.332;18.034;2023-10-13T10:47:32;13.32;;;3.17;;
18820;SDS011;9539;59.332;18.034;2023-10-13T10:49:59;12.50;;;2.80;;
18820;SDS011;9539;59.332;18.034;2023-10-13T10:52:27;9.95;;;2.70;;
18820;SDS011;9539;59.332;18.034;2023-10-13T10:55:00;11.50;;;2.65;;
18820;SDS011;9539;59.332;18.034;2023-10-13T10:57:22;11.02;;;3.00;;
18820;SDS011;9539;59.332;18.034;2023-10-13T10:59:50;13.23;;;3.22;;
18820;SDS011;9539;59.332;18.034;2023-10-13T11:02:30;10.57;;;2.80;;
18820;SDS011;9539;59.332;18.034;2023-10-13T11:04:52;11.77;;;2.72;;
18820;SDS011;9539;59.332;18.034;2023-10-13T11:07:20;11.25;;;2.90;;
18820;SDS011;9539;59.332;18.034;2023-10-13T11:09:43;13.80;;;2.60;;
18820;SDS011;9539;59.332;18.034;2023-10-13T11:12:11;8.27;;;2.80;;
18820;SDS011;9539;59.332;18.034;2023-10-13T11:14:36;9.70;;;2.88;;
18820;SDS011;9539;59.332;18.034;2023-10-13T11:17:00;8.70;;;2.40;;
18820;SDS011;9539;59.332;18.034;2023-10-13T11:19:33;12.40;;;2.47;;
18820;SDS011;9539;59.332;18.034;2023-10-13T11:21:56;10.43;;;2.90;;
18820;SDS011;9539;59.332;18.034;2023-10-13T11:24:18;14.10;;;3.00;;
18820;SDS011;9539;59.332;18.034;2023-10-13T11:26:41;9.93;;;2.83;;
18820;SDS011;9539;59.332;18.034;2023-10-13T11:29:09;10.02;;;2.75;;
18820;SDS011;9539;59.332;18.034;2023-10-13T11:31:31;13.02;;;2.53;;
18820;SDS011;9539;59.332;18.034;2023-10-13T11:33:54;11.02;;;2.33;;
18820;SDS011;9539;59.332;18.034;2023-10-13T11:36:16;13.80;;;3.25;;
18820;SDS011;9539;59.332;18.034;2023-10-13T11:38:42;11.02;;;2.95;;
18820;SDS011;9539;59.332;18.034;2023-10-13T11:41:09;11.68;;;2.97;;
18820;SDS011;9539;59.332;18.034;2023-10-13T11:43:35;11.07;;;3.00;;
18820;SDS011;9539;59.332;18.034;2023-10-13T11:46:12;15.82;;;3.05;;
18820;SDS011;9539;59.332;18.034;2023-10-13T11:48:35;11.50;;;2.75;;
18820;SDS011;9539;59.332;18.034;2023-10-13T11:50:58;14.90;;;3.05;;
18820;SDS011;9539;59.332;18.034;2023-10-13T11:53:20;21.40;;;3.40;;
18820;SDS011;9539;59.332;18.034;2023-10-13T11:55:41;12.82;;;2.88;;
18820;SDS011;9539;59.332;18.034;2023-10-13T11:58:03;12.75;;;3.00;;
18820;SDS011;9539;59.332;18.034;2023-10-13T12:00:26;13.95;;;3.28;;
18820;SDS011;9539;59.332;18.034;2023-10-13T12:03:08;14.43;;;2.88;;
18820;SDS011;9539;59.332;18.034;2023-10-13T12:05:47;17.75;;;3.05;;
18820;SDS011;9539;59.332;18.034;2023-10-13T12:08:27;15.15;;;3.25;;
18820;SDS011;9539;59.332;18.034;2023-10-13T12:10:53;14.05;;;2.72;;
18820;SDS011;9539;59.332;18.034;2023-10-13T12:13:40;17.92;;;3.22;;
18820;SDS011;9539;59.332;18.034;2023-10-13T12:16:03;14.30;;;3.20;;
18820;SDS011;9539;59.332;18.034;2023-10-13T12:18:28;16.10;;;3.22;;
18820;SDS011;9539;59.332;18.034;2023-10-13T12:20:52;14.82;;;3.58;;
18820;SDS011;9539;59.332;18.034;2023-10-13T12:23:14;12.90;;;3.17;;
18820;SDS011;9539;59.332;18.034;2023-10-13T12:25:42;14.15;;;2.65;;
18820;SDS011;9539;59.332;18.034;2023-10-13T12:28:17;14.93;;;3.25;;
18820;SDS011;9539;59.332;18.034;2023-10-13T12:30:41;12.55;;;2.75;;
18820;SDS011;9539;59.332;18.034;2023-10-13T12:33:10;10.38;;;3.15;;
18820;SDS011;9539;59.332;18.034;2023-10-13T12:35:32;14.23;;;2.35;;
18820;SDS011;9539;59.332;18.034;2023-10-13T12:38:05;9.80;;;2.08;;
18820;SDS011;9539;59.332;18.034;2023-10-13T12:40:36;15.77;;;3.63;;
18820;SDS011;9539;59.332;18.034;2023-10-13T12:43:17;14.02;;;2.80;;
18820;SDS011;9539;59.332;18.034;2023-10-13T12:45:56;14.20;;;2.85;;
18820;SDS011;9539;59.332;18.034;2023-10-13T12:48:36;16.15;;;3.20;;
18820;SDS011;9539;59.332;18.034;2023-10-13T12:51:24;13.57;;;2.95;;
18820;SDS011;9539;59.332;18.034;2023-10-13T12:54:00;17.70;;;3.45;;
18820;SDS011;9539;59.332;18.034;2023-10-13T12:56:24;13.55;;;2.95;;
18820;SDS011;9539;59.332;18.034;2023-10-13T12:58:48;14.85;;;3.80;;
18820;SDS011;9539;59.332;18.034;2023-10-13T13:01:12;12.85;;;3.20;;
18820;SDS011;9539;59.332;18.034;2023-10-13T13:03:34;17.58;;;3.53;;
18820;SDS011;9539;59.332;18.034;2023-10-13T13:05:56;16.02;;;3.13;;
18820;SDS011;9539;59.332;18.034;2023-10-13T13:08:18;18.70;;;3.53;;
18820;SDS011;9539;59.332;18.034;2023-10-13T13:10:42;16.27;;;3.22;;
18820;SDS011;9539;59.332;18.034;2023-10-13T13:13:06;13.05;;;2.97;;
18820;SDS011;9539;59.332;18.034;2023-10-13T13:15:30;13.30;;;3.33;;
18820;SDS011;9539;59.332;18.034;2023-10-13T13:17:52;15.43;;;3.33;;
18820;SDS011;9539;59.332;18.034;2023-10-13T13:20:17;14.30;;;3.65;;
18820;SDS011;9539;59.332;18.034;2023-10-13T13:22:48;13.85;;;3.30;;
18820;SDS011;9539;59.332;18.034;2023-10-13T13:25:10;17.08;;;3.25;;
18820;SDS011;9539;59.332;18.034;2023-10-13T13:27:37;20.85;;;3.40;;
18820;SDS011;9539;59.332;18.034;2023-10-13T13:30:02;19.38;;;3.85;;
18820;SDS011;9539;59.332;18.034;2023-10-13T13:32:33;12.50;;;3.53;;
18820;SDS011;9539;59.332;18.034;2023-10-13T13:34:57;19.27;;;5.90;;
18820;SDS011;9539;59.332;18.034;2023-10-13T13:37:24;19.65;;;4.10;;
18820;SDS011;9539;59.332;18.034;2023-10-13T13:39:47;15.98;;;3.20;;
18820;SDS011;9539;59.332;18.034;2023-10-13T13:42:12;11.57;;;3.10;;
18820;SDS011;9539;59.332;18.034;2023-10-13T13:44:37;21.23;;;3.63;;
18820;SDS011;9539;59.332;18.034;2023-10-13T13:47:03;20.00;;;3.30;;
18820;SDS011;9539;59.332;18.034;2023-10-13T13:49:33;19.05;;;3.33;;
18820;SDS011;9539;59.332;18.034;2023-10-13T13:52:00;16.02;;;3.42;;
18820;SDS011;9539;59.332;18.034;2023-10-13T13:54:25;14.25;;;3.08;;
18820;SDS011;9539;59.332;18.034;2023-10-13T13:56:48;16.17;;;3.72;;
18820;SDS011;9539;59.332;18.034;2023-10-13T13:59:10;15.95;;;3.38;;
18820;SDS011;9539;59.332;18.034;2023-10-13T14:01:35;18.65;;;3.92;;
18820;SDS011;9539;59.332;18.034;2023-10-13T14:04:00;19.55;;;3.15;;
18820;SDS011;9539;59.332;18.034;2023-10-13T14:06:24;15.25;;;3.25;;
18820;SDS011;9539;59.332;18.034;2023-10-13T14:08:47;18.85;;;3.65;;
18820;SDS011;9539;59.332;18.034;2023-10-13T14:11:11;14.18;;;2.55;;
18820;SDS011;9539;59.332;18.034;2023-10-13T14:13:42;18.27;;;3.17;;
18820;SDS011;9539;59.332;18.034;2023-10-13T14:16:09;18.85;;;3.25;;
18820;SDS011;9539;59.332;18.034;2023-10-13T14:18:36;14.65;;;3.30;;
18820;SDS011;9539;59.332;18.034;2023-10-13T14:20:58;18.65;;;3.70;;
18820;SDS011;9539;59.332;18.034;2023-10-13T14:23:25;14.70;;;2.95;;
18820;SDS011;9539;59.332;18.034;2023-10-13T14:25:47;20.55;;;3.35;;
18820;SDS011;9539;59.332;18.034;2023-10-13T14:28:11;16.05;;;3.38;;
18820;SDS011;9539;59.332;18.034;2023-10-13T14:30:38;17.10;;;3.80;;
18820;SDS011;9539;59.332;18.034;2023-10-13T14:33:00;17.50;;;4.03;;
18820;SDS011;9539;59.332;18.034;2023-10-13T14:35:22;20.35;;;3.50;;
18820;SDS011;9539;59.332;18.034;2023-10-13T14:37:46;14.82;;;3.25;;
18820;SDS011;9539;59.332;18.034;2023-10-13T14:40:09;12.00;;;2.72;;
18820;SDS011;9539;59.332;18.034;2023-10-13T14:42:34;13.43;;;3.05;;
18820;SDS011;9539;59.332;18.034;2023-10-13T14:44:57;16.83;;;3.88;;
18820;SDS011;9539;59.332;18.034;2023-10-13T14:47:20;10.98;;;3.10;;
18820;SDS011;9539;59.332;18.034;2023-10-13T14:49:44;15.82;;;3.45;;